createdAt,value
2018-02-12T00:00:11.537Z,0
2018-02-12T00:01:21.656Z,0
2018-02-12T00:02:31.818Z,0
2018-02-12T00:03:41.676Z,0
2018-02-12T00:04:51.820Z,0
2018-02-12T00:06:01.941Z,0
2018-02-12T00:07:12.107Z,0
2018-02-12T00:08:22.229Z,0
2018-02-12T00:09:32.384Z,0
2018-02-12T00:10:42.493Z,0
2018-02-12T00:11:52.624Z,0
2018-02-12T00:13:02.732Z,0
2018-02-12T00:14:12.882Z,0
2018-02-12T00:15:22.765Z,0
2018-02-12T00:16:32.883Z,0
2018-02-12T00:17:42.774Z,0
2018-02-12T00:18:52.967Z,0
2018-02-12T00:20:03.153Z,0
2018-02-12T00:21:13.308Z,0
2018-02-12T00:22:23.470Z,0
2018-02-12T00:23:33.702Z,0
2018-02-12T00:24:43.833Z,0
2018-02-12T00:25:53.849Z,0
2018-02-12T00:27:03.965Z,0
2018-02-12T00:28:15.070Z,0
2018-02-12T00:29:25.193Z,0
2018-02-12T00:30:35.341Z,0
2018-02-12T00:31:45.489Z,0
2018-02-12T00:32:55.589Z,0
2018-02-12T00:34:05.701Z,0
2018-02-12T00:35:15.906Z,0
2018-02-12T00:36:26.119Z,0
2018-02-12T00:37:36.302Z,0
2018-02-12T00:38:46.554Z,0
2018-02-12T00:39:56.726Z,0
2018-02-12T00:41:06.876Z,0
2018-02-12T00:42:16.993Z,0
2018-02-12T00:43:26.844Z,0
2018-02-12T00:44:37.066Z,0
2018-02-12T00:45:47.279Z,0
2018-02-12T00:46:57.403Z,0
2018-02-12T00:48:07.519Z,0
2018-02-12T00:49:17.633Z,0
2018-02-12T00:50:27.794Z,0
2018-02-12T00:51:37.948Z,0
2018-02-12T00:52:48.147Z,0
2018-02-12T00:53:58.371Z,0
2018-02-12T00:55:08.539Z,0
2018-02-12T00:56:19.367Z,0
2018-02-12T00:57:29.502Z,0
2018-02-12T00:58:39.622Z,0
2018-02-12T00:59:49.471Z,0
2018-02-12T01:00:59.652Z,0
2018-02-12T01:02:09.774Z,0
2018-02-12T01:03:19.630Z,0
2018-02-12T01:04:29.731Z,0
2018-02-12T01:05:39.598Z,0
2018-02-12T01:06:49.810Z,0
2018-02-12T01:08:00.142Z,0
2018-02-12T01:09:10.345Z,0
2018-02-12T01:10:20.530Z,0
2018-02-12T01:11:30.825Z,0
2018-02-12T01:12:40.673Z,0
2018-02-12T01:13:50.792Z,0
2018-02-12T01:15:00.907Z,0
2018-02-12T01:16:11.100Z,0
2018-02-12T01:17:21.371Z,0
2018-02-12T01:18:31.533Z,0
2018-02-12T01:19:41.686Z,0
2018-02-12T01:20:51.792Z,0
2018-02-12T01:22:01.891Z,0
2018-02-12T01:23:13.035Z,0
2018-02-12T01:24:23.174Z,0
2018-02-12T01:25:33.036Z,0
2018-02-12T01:26:43.179Z,0
2018-02-12T01:27:53.026Z,0
2018-02-12T01:29:03.176Z,0
2018-02-12T01:30:13.305Z,0
2018-02-12T01:31:23.425Z,0
2018-02-12T01:32:33.542Z,0
2018-02-12T01:33:43.678Z,0
2018-02-12T01:34:53.794Z,0
2018-02-12T01:36:03.957Z,0
2018-02-12T01:37:13.822Z,0
2018-02-12T01:38:24.014Z,0
2018-02-12T01:39:34.195Z,0
2018-02-12T01:40:44.399Z,0
2018-02-12T01:41:54.577Z,0
2018-02-12T01:43:04.713Z,0
2018-02-12T01:44:14.851Z,0
2018-02-12T01:45:24.794Z,0
2018-02-12T01:46:35.022Z,0
2018-02-12T01:47:44.907Z,0
2018-02-12T01:48:55.023Z,0
2018-02-12T01:50:05.135Z,0
2018-02-12T01:51:15.280Z,0
2018-02-12T01:52:25.383Z,0
2018-02-12T01:53:36.466Z,0
2018-02-12T01:54:46.628Z,0
2018-02-12T01:55:56.746Z,0
2018-02-12T01:57:06.591Z,0
2018-02-12T01:58:16.428Z,0
2018-02-12T01:59:26.582Z,0
2018-02-12T02:00:36.456Z,0
2018-02-12T02:01:46.594Z,0
2018-02-12T02:02:56.567Z,0
2018-02-12T02:04:06.703Z,0
2018-02-12T02:05:16.807Z,0
2018-02-12T02:06:26.940Z,0
2018-02-12T02:07:36.786Z,0
2018-02-12T02:08:46.767Z,0
2018-02-12T02:09:56.908Z,0
2018-02-12T02:11:07.029Z,0
2018-02-12T02:12:16.946Z,0
2018-02-12T02:13:28.026Z,0
2018-02-12T02:14:38.445Z,0
2018-02-12T02:15:50.271Z,0
2018-02-12T02:17:00.374Z,0
2018-02-12T02:18:10.554Z,0
2018-02-12T02:19:20.769Z,0
2018-02-12T02:20:30.945Z,0
2018-02-12T02:21:41.132Z,0
2018-02-12T02:22:51.289Z,0
2018-02-12T02:24:01.430Z,0
2018-02-12T02:25:11.552Z,0
2018-02-12T02:26:21.493Z,0
2018-02-12T02:27:31.624Z,0
2018-02-12T02:28:41.729Z,0
2018-02-12T02:29:51.913Z,0
2018-02-12T02:31:02.018Z,0
2018-02-12T02:32:11.867Z,0
2018-02-12T02:33:21.974Z,0
2018-02-12T02:34:32.088Z,0
2018-02-12T02:35:42.206Z,0
2018-02-12T02:36:52.324Z,0
2018-02-12T02:38:02.199Z,0
2018-02-12T02:39:12.320Z,0
2018-02-12T02:40:22.290Z,0
2018-02-12T02:41:32.395Z,0
2018-02-12T02:42:42.512Z,0
2018-02-12T02:43:52.615Z,0
2018-02-12T02:45:02.770Z,0
2018-02-12T02:46:12.939Z,0
2018-02-12T02:47:23.044Z,0
2018-02-12T02:48:33.174Z,0
2018-02-12T02:49:43.284Z,0
2018-02-12T02:50:53.394Z,0
2018-02-12T02:52:03.520Z,0
2018-02-12T02:53:13.691Z,0
2018-02-12T02:54:23.864Z,0
2018-02-12T02:55:33.961Z,0
2018-02-12T02:56:44.071Z,0
2018-02-12T02:57:54.282Z,0
2018-02-12T02:59:04.728Z,0
2018-02-12T03:00:14.860Z,0
2018-02-12T03:01:24.971Z,0
2018-02-12T03:02:35.141Z,0
2018-02-12T03:03:45.267Z,0
2018-02-12T03:04:55.382Z,0
2018-02-12T03:06:05.499Z,0
2018-02-12T03:07:15.644Z,0
2018-02-12T03:08:25.772Z,0
2018-02-12T03:09:35.880Z,0
2018-02-12T03:10:46.009Z,0
2018-02-12T03:11:55.887Z,0
2018-02-12T03:13:05.750Z,0
2018-02-12T03:14:15.879Z,0
2018-02-12T03:15:25.991Z,0
2018-02-12T03:16:35.846Z,0
2018-02-12T03:17:45.806Z,0
2018-02-12T03:18:55.912Z,0
2018-02-12T03:20:06.039Z,0
2018-02-12T03:21:16.147Z,0
2018-02-12T03:22:26.289Z,0
2018-02-12T03:23:36.229Z,0
2018-02-12T03:24:46.346Z,0
2018-02-12T03:25:55.987Z,0
2018-02-12T03:27:07.144Z,0
2018-02-12T03:28:17.627Z,0
2018-02-12T03:29:27.758Z,0
2018-02-12T03:30:37.944Z,0
2018-02-12T03:31:48.056Z,0
2018-02-12T03:32:58.162Z,0
2018-02-12T03:34:08.288Z,0
2018-02-12T03:35:18.138Z,0
2018-02-12T03:36:28.268Z,0
2018-02-12T03:37:38.384Z,0
2018-02-12T03:38:48.646Z,0
2018-02-12T03:39:58.804Z,0
2018-02-12T03:41:08.912Z,0
2018-02-12T03:42:19.041Z,0
2018-02-12T03:43:29.162Z,0
2018-02-12T03:44:39.272Z,0
2018-02-12T03:45:49.144Z,0
2018-02-12T03:46:58.738Z,0
2018-02-12T03:48:08.604Z,0
2018-02-12T03:49:18.475Z,0
2018-02-12T03:50:28.604Z,0
2018-02-12T03:51:38.471Z,0
2018-02-12T03:52:48.680Z,0
2018-02-12T03:53:58.984Z,0
2018-02-12T03:55:09.126Z,0
2018-02-12T03:56:19.267Z,0
2018-02-12T03:57:29.407Z,0
2018-02-12T03:58:39.312Z,0
2018-02-12T03:59:49.458Z,0
2018-02-12T04:00:59.306Z,0
2018-02-12T04:02:09.639Z,0
2018-02-12T04:03:19.779Z,0
2018-02-12T04:04:30.987Z,0
2018-02-12T04:05:41.178Z,0
2018-02-12T04:06:51.295Z,0
2018-02-12T04:08:01.394Z,0
2018-02-12T04:09:11.530Z,0
2018-02-12T04:10:21.639Z,0
2018-02-12T04:11:31.773Z,0
2018-02-12T04:12:41.936Z,0
2018-02-12T04:13:52.077Z,0
2018-02-12T04:15:02.166Z,0
2018-02-12T04:16:12.035Z,0
2018-02-12T04:17:22.156Z,0
2018-02-12T04:18:32.085Z,0
2018-02-12T04:19:42.051Z,0
2018-02-12T04:20:52.186Z,0
2018-02-12T04:22:02.497Z,0
2018-02-12T04:23:12.600Z,0
2018-02-12T04:24:22.581Z,0
2018-02-12T04:25:32.707Z,0
2018-02-12T04:26:42.879Z,0
2018-02-12T04:27:53.010Z,0
2018-02-12T04:29:03.132Z,0
2018-02-12T04:30:13.362Z,0
2018-02-12T04:31:23.578Z,0
2018-02-12T04:32:33.790Z,0
2018-02-12T04:33:43.983Z,0
2018-02-12T04:34:54.093Z,0
2018-02-12T04:36:04.222Z,0
2018-02-12T04:37:14.347Z,0
2018-02-12T04:38:24.549Z,0
2018-02-12T04:39:34.691Z,0
2018-02-12T04:40:44.893Z,0
2018-02-12T04:41:55.229Z,0
2018-02-12T04:43:05.395Z,0
2018-02-12T04:44:15.539Z,0
2018-02-12T04:45:25.645Z,0
2018-02-12T04:46:35.795Z,0
2018-02-12T04:47:45.907Z,0
2018-02-12T04:48:56.004Z,0
2018-02-12T04:50:05.752Z,0
2018-02-12T04:51:15.970Z,0
2018-02-12T04:52:26.220Z,0
2018-02-12T04:53:36.493Z,0
2018-02-12T04:54:46.369Z,0
2018-02-12T04:55:56.239Z,0
2018-02-12T04:57:06.362Z,0
2018-02-12T04:58:16.107Z,0
2018-02-12T04:59:26.243Z,0
2018-02-12T05:00:36.353Z,0
2018-02-12T05:01:46.483Z,0
2018-02-12T05:02:56.094Z,0
2018-02-12T05:04:05.951Z,0
2018-02-12T05:05:15.815Z,0
2018-02-12T05:06:25.949Z,0
2018-02-12T05:07:35.900Z,0
2018-02-12T05:08:46.001Z,0
2018-02-12T05:09:56.102Z,0
2018-02-12T05:11:06.227Z,0
2018-02-12T05:12:16.097Z,0
2018-02-12T05:13:26.073Z,0
2018-02-12T05:14:36.201Z,0
2018-02-12T05:15:46.319Z,0
2018-02-12T05:16:56.433Z,0
2018-02-12T05:18:06.698Z,0
2018-02-12T05:19:16.831Z,0
2018-02-12T05:20:26.692Z,0
2018-02-12T05:21:37.102Z,0
2018-02-12T05:22:47.213Z,0
2018-02-12T05:23:57.421Z,0
2018-02-12T05:25:07.544Z,0
2018-02-12T05:26:17.660Z,0
2018-02-12T05:27:27.538Z,0
2018-02-12T05:28:37.688Z,0
2018-02-12T05:29:47.810Z,0
2018-02-12T05:30:57.914Z,0
2018-02-12T05:32:07.855Z,0
2018-02-12T05:33:18.094Z,0
2018-02-12T05:34:28.280Z,0
2018-02-12T05:35:38.525Z,0
2018-02-12T05:36:48.405Z,0
2018-02-12T05:37:58.247Z,0
2018-02-12T05:39:08.408Z,0
2018-02-12T05:40:18.517Z,0
2018-02-12T05:41:28.634Z,0
2018-02-12T05:42:38.892Z,0
2018-02-12T05:43:49.092Z,0
2018-02-12T05:44:59.339Z,0
2018-02-12T05:46:09.476Z,0
2018-02-12T05:47:19.331Z,0
2018-02-12T05:48:29.443Z,0
2018-02-12T05:49:40.522Z,0
2018-02-12T05:50:50.636Z,0
2018-02-12T05:52:00.742Z,0
2018-02-12T05:53:10.850Z,0
2018-02-12T05:54:21.072Z,0
2018-02-12T05:55:30.954Z,0
2018-02-12T05:56:41.094Z,0
2018-02-12T05:57:51.282Z,0
2018-02-12T05:59:01.522Z,0
2018-02-12T06:00:11.658Z,0
2018-02-12T06:01:21.872Z,0
2018-02-12T06:02:32.057Z,0
2018-02-12T06:03:42.204Z,4
2018-02-12T06:04:52.317Z,4
2018-02-12T06:06:02.431Z,0
2018-02-12T06:07:12.676Z,0
2018-02-12T06:08:22.870Z,4
2018-02-12T06:09:33.058Z,4
2018-02-12T06:10:43.281Z,0
2018-02-12T06:11:53.441Z,4
2018-02-12T06:13:03.684Z,4
2018-02-12T06:14:13.878Z,8
2018-02-12T06:15:23.993Z,8
2018-02-12T06:16:34.096Z,8
2018-02-12T06:17:45.176Z,8
2018-02-12T06:18:55.301Z,12
2018-02-12T06:20:05.434Z,12
2018-02-12T06:21:16.546Z,20
2018-02-12T06:22:26.636Z,24
2018-02-12T06:23:36.751Z,28
2018-02-12T06:24:46.931Z,32
2018-02-12T06:25:57.210Z,40
2018-02-12T06:27:07.460Z,44
2018-02-12T06:28:18.572Z,52
2018-02-12T06:29:28.766Z,64
2018-02-12T06:30:38.632Z,76
2018-02-12T06:31:48.773Z,100
2018-02-12T06:32:58.991Z,120
2018-02-12T06:34:09.187Z,140
2018-02-12T06:35:19.336Z,156
2018-02-12T06:36:29.198Z,172
2018-02-12T06:37:39.321Z,172
2018-02-12T06:38:49.589Z,184
2018-02-12T06:39:59.730Z,188
2018-02-12T06:41:09.920Z,188
2018-02-12T06:42:20.020Z,192
2018-02-12T06:43:30.154Z,192
2018-02-12T06:44:40.272Z,180
2018-02-12T06:45:50.371Z,172
2018-02-12T06:47:00.478Z,240
2018-02-12T06:48:10.831Z,276
2018-02-12T06:49:21.016Z,300
2018-02-12T06:50:31.157Z,308
2018-02-12T06:51:41.032Z,348
2018-02-12T06:52:52.116Z,380
2018-02-12T06:54:02.263Z,404
2018-02-12T06:55:12.368Z,444
2018-02-12T06:56:22.493Z,500
2018-02-12T06:57:32.619Z,484
2018-02-12T06:58:42.468Z,476
2018-02-12T06:59:52.654Z,492
2018-02-12T07:01:02.834Z,492
2018-02-12T07:02:13.014Z,460
2018-02-12T07:03:23.227Z,444
2018-02-12T07:04:33.148Z,392
2018-02-12T07:05:42.997Z,344
2018-02-12T07:06:52.876Z,292
2018-02-12T07:08:03.283Z,308
2018-02-12T07:09:13.417Z,340
2018-02-12T07:10:23.552Z,408
2018-02-12T07:11:33.690Z,432
2018-02-12T07:12:43.792Z,496
2018-02-12T07:13:53.733Z,564
2018-02-12T07:15:03.927Z,676
2018-02-12T07:16:14.083Z,844
2018-02-12T07:17:24.213Z,932
2018-02-12T07:18:34.318Z,936
2018-02-12T07:19:44.067Z,928
2018-02-12T07:20:54.200Z,956
2018-02-12T07:22:04.335Z,1000
2018-02-12T07:23:14.441Z,1064
2018-02-12T07:24:24.583Z,1140
2018-02-12T07:25:34.697Z,1288
2018-02-12T07:26:44.496Z,1544
2018-02-12T07:27:54.662Z,1752
2018-02-12T07:29:04.804Z,1764
2018-02-12T07:30:14.921Z,1560
2018-02-12T07:31:25.182Z,1324
2018-02-12T07:32:35.068Z,1204
2018-02-12T07:33:45.195Z,1152
2018-02-12T07:34:55.376Z,1144
2018-02-12T07:36:05.552Z,1108
2018-02-12T07:37:15.755Z,1128
2018-02-12T07:38:25.700Z,1192
2018-02-12T07:39:35.812Z,1264
2018-02-12T07:40:45.699Z,1304
2018-02-12T07:41:55.810Z,1508
2018-02-12T07:43:05.927Z,1908
2018-02-12T07:44:16.054Z,2352
2018-02-12T07:45:26.154Z,2712
2018-02-12T07:46:36.279Z,2668
2018-02-12T07:47:46.151Z,2432
2018-02-12T07:48:56.283Z,2352
2018-02-12T07:50:06.406Z,2248
2018-02-12T07:51:16.271Z,2120
2018-02-12T07:52:26.417Z,2048
2018-02-12T07:53:36.521Z,1916
2018-02-12T07:54:46.047Z,1660
2018-02-12T07:55:56.148Z,1488
2018-02-12T07:57:06.271Z,1528
2018-02-12T07:58:16.165Z,1644
2018-02-12T07:59:25.947Z,1572
2018-02-12T08:00:35.841Z,1476
2018-02-12T08:01:46.047Z,1440
2018-02-12T08:02:56.312Z,1564
2018-02-12T08:04:06.185Z,1708
2018-02-12T08:05:16.298Z,1868
2018-02-12T08:06:26.189Z,2056
2018-02-12T08:07:36.364Z,2208
2018-02-12T08:08:46.485Z,2256
2018-02-12T08:09:56.601Z,2440
2018-02-12T08:11:06.212Z,2816
2018-02-12T08:12:16.426Z,3496
2018-02-12T08:13:26.277Z,4316
2018-02-12T08:14:36.443Z,5124
2018-02-12T08:15:46.562Z,5832
2018-02-12T08:16:56.720Z,6404
2018-02-12T08:18:06.834Z,6708
2018-02-12T08:19:17.008Z,6992
2018-02-12T08:20:27.123Z,7272
2018-02-12T08:21:37.481Z,7448
2018-02-12T08:22:47.633Z,7620
2018-02-12T08:23:57.823Z,9440
2018-02-12T08:25:08.013Z,10424
2018-02-12T08:26:18.273Z,10236
2018-02-12T08:27:28.462Z,7672
2018-02-12T08:28:38.651Z,7212
2018-02-12T08:29:48.926Z,6780
2018-02-12T08:30:59.121Z,7276
2018-02-12T08:32:09.319Z,7384
2018-02-12T08:33:19.445Z,6740
2018-02-12T08:34:29.552Z,6664
2018-02-12T08:35:39.444Z,6376
2018-02-12T08:36:49.591Z,5952
2018-02-12T08:37:59.702Z,5500
2018-02-12T08:39:09.828Z,5140
2018-02-12T08:40:19.988Z,4912
2018-02-12T08:41:30.185Z,5076
2018-02-12T08:42:40.422Z,5764
2018-02-12T08:43:50.574Z,6700
2018-02-12T08:45:00.592Z,11480
2018-02-12T08:46:10.450Z,16320
2018-02-12T08:47:20.635Z,22496
2018-02-12T08:48:30.742Z,20512
2018-02-12T08:49:40.872Z,14016
2018-02-12T08:50:50.740Z,23648
2018-02-12T08:52:00.858Z,11712
2018-02-12T08:53:10.706Z,20480
2018-02-12T08:54:20.822Z,23424
2018-02-12T08:55:30.962Z,17664
2018-02-12T08:56:41.149Z,22560
2018-02-12T08:57:51.374Z,27808
2018-02-12T08:59:01.560Z,11668
2018-02-12T09:00:12.000Z,26464
2018-02-12T09:01:22.107Z,31616
2018-02-12T09:02:32.257Z,20736
2018-02-12T09:03:42.439Z,34016
2018-02-12T09:04:52.681Z,24576
2018-02-12T09:06:02.980Z,26880
2018-02-12T09:07:13.095Z,33888
2018-02-12T09:08:23.304Z,25216
2018-02-12T09:09:33.203Z,29728
2018-02-12T09:10:43.345Z,29248
2018-02-12T09:11:53.616Z,12408
2018-02-12T09:13:03.812Z,9768
2018-02-12T09:14:13.685Z,8928
2018-02-12T09:15:23.632Z,8904
2018-02-12T09:16:33.564Z,6576
2018-02-12T09:17:43.741Z,6120
2018-02-12T09:18:54.837Z,6236
2018-02-12T09:20:04.952Z,15328
2018-02-12T09:21:15.390Z,36096
2018-02-12T09:22:25.610Z,38208
2018-02-12T09:23:35.479Z,42016
2018-02-12T09:24:45.343Z,40064
2018-02-12T09:25:55.453Z,42208
2018-02-12T09:27:05.578Z,40736
2018-02-12T09:28:16.739Z,22400
2018-02-12T09:29:26.887Z,26368
2018-02-12T09:30:37.067Z,16320
2018-02-12T09:31:47.334Z,38432
2018-02-12T09:32:57.563Z,37664
2018-02-12T09:34:07.744Z,37056
2018-02-12T09:35:17.969Z,38880
2018-02-12T09:36:28.270Z,43520
2018-02-12T09:37:38.405Z,41888
2018-02-12T09:38:48.618Z,45280
2018-02-12T09:39:58.756Z,39776
2018-02-12T09:41:08.890Z,15968
2018-02-12T09:42:20.020Z,10512
2018-02-12T09:43:30.174Z,14560
2018-02-12T09:44:40.325Z,17312
2018-02-12T09:45:50.454Z,14276
2018-02-12T09:47:00.588Z,44448
2018-02-12T09:48:10.860Z,43840
2018-02-12T09:49:21.136Z,42144
2018-02-12T09:50:31.303Z,39872
2018-02-12T09:51:41.515Z,39648
2018-02-12T09:52:51.843Z,39808
2018-02-12T09:54:02.001Z,42496
2018-02-12T09:55:13.087Z,39968
2018-02-12T09:56:23.208Z,44128
2018-02-12T09:57:33.151Z,17184
2018-02-12T09:58:43.293Z,35968
2018-02-12T09:59:53.257Z,40224
2018-02-12T10:01:03.395Z,43264
2018-02-12T10:02:13.578Z,43392
2018-02-12T10:03:23.808Z,44320
2018-02-12T10:04:33.739Z,41760
2018-02-12T10:05:43.886Z,38176
2018-02-12T10:06:54.001Z,37984
2018-02-12T10:08:04.194Z,13548
2018-02-12T10:09:14.149Z,49664
2018-02-12T10:10:24.293Z,55808
2018-02-12T10:11:34.430Z,20352
2018-02-12T10:12:44.626Z,39968
2018-02-12T10:13:54.503Z,14008
2018-02-12T10:15:04.669Z,45504
2018-02-12T10:16:14.548Z,51040
2018-02-12T10:17:24.704Z,44096
2018-02-12T10:18:34.878Z,24256
2018-02-12T10:19:45.026Z,50720
2018-02-12T10:20:55.205Z,44288
2018-02-12T10:22:05.454Z,49248
2018-02-12T10:23:15.594Z,48000
2018-02-12T10:24:25.877Z,46272
2018-02-12T10:25:36.072Z,51104
2018-02-12T10:26:46.307Z,49376
2018-02-12T10:27:56.458Z,53376
2018-02-12T10:29:06.735Z,51840
2018-02-12T10:30:16.913Z,17600
2018-02-12T10:31:27.243Z,36864
2018-02-12T10:32:37.376Z,48896
2018-02-12T10:33:47.633Z,53984
2018-02-12T10:34:57.857Z,53312
2018-02-12T10:36:08.109Z,24832
2018-02-12T10:37:18.294Z,20192
2018-02-12T10:38:28.487Z,58048
2018-02-12T10:39:38.780Z,53280
2018-02-12T10:40:48.726Z,53056
2018-02-12T10:41:58.894Z,56544
2018-02-12T10:43:09.028Z,42560
2018-02-12T10:44:19.223Z,44384
2018-02-12T10:45:29.410Z,56800
2018-02-12T10:46:39.660Z,20384
2018-02-12T10:47:49.841Z,19392
2018-02-12T10:48:59.992Z,18080
2018-02-12T10:50:10.231Z,21696
2018-02-12T10:51:20.159Z,15776
2018-02-12T10:52:30.343Z,13148
2018-02-12T10:53:40.438Z,33152
2018-02-12T10:54:50.310Z,18720
2018-02-12T10:56:00.515Z,23936
2018-02-12T10:57:10.656Z,11728
2018-02-12T10:58:20.832Z,11920
2018-02-12T10:59:30.989Z,14408
2018-02-12T11:00:41.107Z,12844
2018-02-12T11:01:51.274Z,13628
2018-02-12T11:03:01.405Z,11436
2018-02-12T11:04:11.565Z,10800
2018-02-12T11:05:21.699Z,11300
2018-02-12T11:06:31.903Z,9804
2018-02-12T11:07:41.767Z,9720
2018-02-12T11:08:51.943Z,8812
2018-02-12T11:10:02.137Z,8752
2018-02-12T11:11:12.286Z,7940
2018-02-12T11:12:23.124Z,6060
2018-02-12T11:13:33.341Z,5704
2018-02-12T11:14:43.523Z,5948
2018-02-12T11:15:53.728Z,6624
2018-02-12T11:17:03.873Z,8120
2018-02-12T11:18:14.025Z,8136
2018-02-12T11:19:23.917Z,8260
2018-02-12T11:20:34.092Z,8436
2018-02-12T11:21:44.325Z,10424
2018-02-12T11:22:54.504Z,9268
2018-02-12T11:24:04.262Z,8848
2018-02-12T11:25:14.430Z,8536
2018-02-12T11:26:24.600Z,7940
2018-02-12T11:27:34.734Z,6444
2018-02-12T11:28:44.842Z,6080
2018-02-12T11:29:54.975Z,6272
2018-02-12T11:31:05.090Z,8072
2018-02-12T11:32:15.236Z,7816
2018-02-12T11:33:24.999Z,6164
2018-02-12T11:34:34.922Z,5800
2018-02-12T11:35:45.048Z,6104
2018-02-12T11:36:54.661Z,6348
2018-02-12T11:38:04.798Z,6996
2018-02-12T11:39:14.672Z,5320
2018-02-12T11:40:24.851Z,3884
2018-02-12T11:41:35.037Z,3940
2018-02-12T11:42:45.177Z,5512
2018-02-12T11:43:55.308Z,7624
2018-02-12T11:45:05.299Z,7644
2018-02-12T11:46:15.658Z,6060
2018-02-12T11:47:25.431Z,5432
2018-02-12T11:48:35.569Z,7064
2018-02-12T11:49:45.774Z,7904
2018-02-12T11:50:55.669Z,9544
2018-02-12T11:52:05.784Z,10560
2018-02-12T11:53:15.941Z,11380
2018-02-12T11:54:26.134Z,10776
2018-02-12T11:55:36.347Z,9820
2018-02-12T11:56:46.483Z,12972
2018-02-12T11:57:56.538Z,9356
2018-02-12T11:59:06.730Z,8372
2018-02-12T12:00:16.865Z,7596
2018-02-12T12:01:27.212Z,6704
2018-02-12T12:02:37.351Z,5652
2018-02-12T12:03:47.469Z,4836
2018-02-12T12:04:57.809Z,4340
2018-02-12T12:06:07.942Z,3768
2018-02-12T12:07:17.952Z,3128
2018-02-12T12:08:28.109Z,2792
2018-02-12T12:09:38.218Z,3400
2018-02-12T12:10:48.660Z,4760
2018-02-12T12:11:58.972Z,4716
2018-02-12T12:13:09.166Z,4020
2018-02-12T12:14:19.290Z,4684
2018-02-12T12:15:29.461Z,6044
2018-02-12T12:16:39.811Z,5036
2018-02-12T12:17:49.917Z,4084
2018-02-12T12:19:00.057Z,3468
2018-02-12T12:20:10.193Z,3004
2018-02-12T12:21:20.336Z,3296
2018-02-12T12:22:30.480Z,4336
2018-02-12T12:23:40.666Z,5016
2018-02-12T12:24:50.845Z,5356
2018-02-12T12:26:00.725Z,5400
2018-02-12T12:27:10.886Z,5756
2018-02-12T12:28:21.018Z,7060
2018-02-12T12:29:31.148Z,9064
2018-02-12T12:30:41.273Z,11484
2018-02-12T12:31:51.178Z,14912
2018-02-12T12:33:01.295Z,13292
2018-02-12T12:34:12.399Z,15296
2018-02-12T12:35:22.551Z,10048
2018-02-12T12:36:32.767Z,9876
2018-02-12T12:37:42.830Z,10568
2018-02-12T12:38:52.813Z,10264
2018-02-12T12:40:02.946Z,9888
2018-02-12T12:41:13.112Z,11452
2018-02-12T12:42:23.342Z,13996
2018-02-12T12:43:33.584Z,17856
2018-02-12T12:44:43.727Z,19136
2018-02-12T12:45:53.948Z,19328
2018-02-12T12:47:04.142Z,15264
2018-02-12T12:48:14.378Z,41888
2018-02-12T12:49:24.570Z,14116
2018-02-12T12:50:34.826Z,14212
2018-02-12T12:51:46.029Z,13692
2018-02-12T12:52:56.322Z,13856
2018-02-12T12:54:06.536Z,24864
2018-02-12T12:55:16.699Z,16096
2018-02-12T12:56:26.879Z,25536
2018-02-12T12:57:37.070Z,26624
2018-02-12T12:58:47.217Z,37952
2018-02-12T12:59:57.150Z,38432
2018-02-12T13:01:07.320Z,37600
2018-02-12T13:02:17.460Z,17152
2018-02-12T13:03:27.234Z,9400
2018-02-12T13:04:37.139Z,6680
2018-02-12T13:05:47.038Z,5096
2018-02-12T13:06:57.146Z,4596
2018-02-12T13:08:07.276Z,6724
2018-02-12T13:09:17.468Z,7232
2018-02-12T13:10:27.624Z,7756
2018-02-12T13:11:37.814Z,6732
2018-02-12T13:12:47.999Z,5908
2018-02-12T13:13:58.237Z,6304
2018-02-12T13:15:08.492Z,6896
2018-02-12T13:16:18.764Z,16608
2018-02-12T13:17:28.893Z,11328
2018-02-12T13:18:39.042Z,13040
2018-02-12T13:19:49.177Z,47264
2018-02-12T13:20:59.314Z,52736
2018-02-12T13:22:09.453Z,50400
2018-02-12T13:23:19.309Z,45952
2018-02-12T13:24:29.456Z,44512
2018-02-12T13:25:39.565Z,48704
2018-02-12T13:26:49.734Z,47680
2018-02-12T13:27:59.916Z,40352
2018-02-12T13:29:10.080Z,38368
2018-02-12T13:30:20.924Z,43616
2018-02-12T13:31:31.074Z,45184
2018-02-12T13:32:41.308Z,39072
2018-02-12T13:33:51.178Z,15040
2018-02-12T13:35:01.043Z,33472
2018-02-12T13:36:11.297Z,11208
2018-02-12T13:37:21.426Z,40992
2018-02-12T13:38:31.551Z,9392
2018-02-12T13:39:41.732Z,10452
2018-02-12T13:40:51.624Z,9340
2018-02-12T13:42:01.742Z,8648
2018-02-12T13:43:11.990Z,6804
2018-02-12T13:44:22.257Z,4792
2018-02-12T13:45:32.480Z,3916
2018-02-12T13:46:43.578Z,4708
2018-02-12T13:47:53.757Z,6508
2018-02-12T13:49:04.000Z,7268
2018-02-12T13:50:14.214Z,7488
2018-02-12T13:51:24.436Z,7568
2018-02-12T13:52:34.604Z,7396
2018-02-12T13:53:44.883Z,6024
2018-02-12T13:54:55.081Z,4412
2018-02-12T13:56:04.985Z,2844
2018-02-12T13:57:15.127Z,1880
2018-02-12T13:58:25.255Z,1528
2018-02-12T13:59:35.391Z,1716
2018-02-12T14:00:45.527Z,2160
2018-02-12T14:01:55.726Z,2516
2018-02-12T14:03:05.879Z,3028
2018-02-12T14:04:16.038Z,3652
2018-02-12T14:05:26.161Z,4096
2018-02-12T14:06:36.292Z,4376
2018-02-12T14:07:46.498Z,4864
2018-02-12T14:08:56.894Z,4404
2018-02-12T14:10:07.033Z,3896
2018-02-12T14:11:17.252Z,3144
2018-02-12T14:12:27.440Z,2616
2018-02-12T14:13:37.651Z,2392
2018-02-12T14:14:47.870Z,2288
2018-02-12T14:15:57.752Z,2692
2018-02-12T14:17:07.879Z,3992
2018-02-12T14:18:17.790Z,5092
2018-02-12T14:19:27.926Z,6724
2018-02-12T14:20:37.820Z,8756
2018-02-12T14:21:47.949Z,9348
2018-02-12T14:22:59.101Z,8292
2018-02-12T14:24:09.238Z,6640
2018-02-12T14:25:19.348Z,6412
2018-02-12T14:26:29.529Z,7408
2018-02-12T14:27:39.701Z,7800
2018-02-12T14:28:49.826Z,7780
2018-02-12T14:29:59.949Z,8300
2018-02-12T14:31:10.117Z,8072
2018-02-12T14:32:20.340Z,7452
2018-02-12T14:33:30.467Z,7192
2018-02-12T14:34:40.622Z,7008
2018-02-12T14:35:50.638Z,6472
2018-02-12T14:37:00.581Z,4484
2018-02-12T14:38:10.800Z,3548
2018-02-12T14:39:20.969Z,3216
2018-02-12T14:40:31.113Z,2904
2018-02-12T14:41:41.253Z,2596
2018-02-12T14:42:51.383Z,2300
2018-02-12T14:44:01.536Z,2216
2018-02-12T14:45:11.774Z,2484
2018-02-12T14:46:21.992Z,7796
2018-02-12T14:47:32.142Z,2608
2018-02-12T14:48:42.429Z,2468
2018-02-12T14:49:52.568Z,2456
2018-02-12T14:51:02.812Z,2660
2018-02-12T14:52:13.080Z,2980
2018-02-12T14:53:23.305Z,3556
2018-02-12T14:54:33.465Z,3876
2018-02-12T14:55:43.727Z,6292
2018-02-12T14:56:53.929Z,4384
2018-02-12T14:58:04.147Z,4728
2018-02-12T14:59:14.387Z,3788
2018-02-12T15:00:24.573Z,3492
2018-02-12T15:01:34.847Z,3496
2018-02-12T15:02:44.719Z,4236
2018-02-12T15:03:54.856Z,9352
2018-02-12T15:05:04.618Z,5180
2018-02-12T15:06:14.490Z,8548
2018-02-12T15:07:24.620Z,7692
2018-02-12T15:08:34.775Z,4580
2018-02-12T15:09:44.966Z,4428
2018-02-12T15:10:55.120Z,5260
2018-02-12T15:12:05.257Z,4904
2018-02-12T15:13:15.511Z,4416
2018-02-12T15:14:26.615Z,4352
2018-02-12T15:15:37.002Z,4352
2018-02-12T15:16:47.238Z,4356
2018-02-12T15:17:57.416Z,4296
2018-02-12T15:19:07.705Z,4172
2018-02-12T15:20:17.815Z,4096
2018-02-12T15:21:27.981Z,3992
2018-02-12T15:22:38.151Z,3788
2018-02-12T15:23:48.015Z,3588
2018-02-12T15:24:58.054Z,3388
2018-02-12T15:26:08.203Z,3200
2018-02-12T15:27:18.334Z,3028
2018-02-12T15:28:29.671Z,2868
2018-02-12T15:29:40.787Z,2708
2018-02-12T15:30:50.927Z,2556
2018-02-12T15:32:01.090Z,2452
2018-02-12T15:33:11.233Z,2408
2018-02-12T15:34:21.384Z,2388
2018-02-12T15:35:31.554Z,2368
2018-02-12T15:36:41.425Z,2396
2018-02-12T15:37:51.551Z,2456
2018-02-12T15:39:01.681Z,2496
2018-02-12T15:40:11.841Z,2472
2018-02-12T15:41:21.980Z,2396
2018-02-12T15:42:32.215Z,2320
2018-02-12T15:43:42.408Z,2256
2018-02-12T15:44:52.799Z,2096
2018-02-12T15:46:02.841Z,1928
2018-02-12T15:47:12.996Z,1772
2018-02-12T15:48:23.174Z,1592
2018-02-12T15:49:33.105Z,1444
2018-02-12T15:50:43.035Z,1324
2018-02-12T15:51:53.175Z,1224
2018-02-12T15:53:03.568Z,1144
2018-02-12T15:54:13.822Z,1072
2018-02-12T15:55:24.244Z,1024
2018-02-12T15:56:34.863Z,996
2018-02-12T15:57:45.232Z,976
2018-02-12T15:58:55.357Z,952
2018-02-12T16:00:05.720Z,916
2018-02-12T16:01:15.873Z,872
2018-02-12T16:02:25.728Z,828
2018-02-12T16:03:35.859Z,780
2018-02-12T16:04:45.742Z,736
2018-02-12T16:05:56.092Z,696
2018-02-12T16:07:06.311Z,648